Time,TemperatureF,DewpointF,PressureIn,WindDirection,WindDirectionDegrees,WindSpeedMPH,WindSpeedGustMPH,Humidity,HourlyPrecipIn,Conditions,Clouds,dailyrainin,SoftwareType,DateUTC
2013-05-28 00:00:00,47.3,41.4,29.07,West,270,0.0,0.0,80,0.00,RA,SKC,0.00,WeatherDisplay:10.37,2013-05-27 23:00:00,
2013-05-28 00:05:00,47.3,41.1,29.08,West,270,0.0,0.0,79,0.00,RA,SKC,0.00,WeatherDisplay:10.37,2013-05-27 23:05:00,
2013-05-28 00:10:00,47.3,41.4,29.08,West,270,0.0,0.0,80,0.00,CLR,SKC,0.00,WeatherDisplay:10.37,2013-05-27 23:10:00,
2013-05-28 00:15:00,47.1,41.3,29.08,West,270,0.0,0.0,80,0.00,CLR,SKC,0.00,WeatherDisplay:10.37,2013-05-27 23:15:00,
2013-05-28 00:20:00,47.3,41.4,29.07,West,270,0.0,0.0,80,0.00,CLR,SKC,0.00,WeatherDisplay:10.37,2013-05-27 23:20:00,
2013-05-28 00:25:00,47.3,41.8,29.07,ESE,112,0.0,0.0,81,0.00,CLR,SKC,0.00,WeatherDisplay:10.37,2013-05-27 23:25:00,
2013-05-28 00:30:00,47.3,41.8,29.08,ESE,112,0.0,0.0,81,0.00,CLR,SKC,0.00,WeatherDisplay:10.37,2013-05-27 23:30:00,
2013-05-28 00:35:00,47.3,41.8,29.08,ESE,112,0.0,0.0,81,0.00,CLR,SKC,0.00,WeatherDisplay:10.37,2013-05-27 23:35:00,
2013-05-28 00:40:00,47.3,41.8,29.07,ESE,112,0.0,0.0,81,0.00,CLR,SKC,0.00,WeatherDisplay:10.37,2013-05-27 23:40:00,
2013-05-28 00:45:00,47.3,41.8,29.08,ESE,112,0.0,0.0,81,0.00,CLR,SKC,0.00,WeatherDisplay:10.37,2013-05-27 23:45:00,
2013-05-28 00:50:00,47.3,41.8,29.08,ESE,112,0.0,0.0,81,0.00,CLR,SKC,0.00,WeatherDisplay:10.37,2013-05-27 23:50:00,
2013-05-28 00:55:00,47.1,41.6,29.08,ESE,112,0.0,0.0,81,0.00,CLR,SKC,0.00,WeatherDisplay:10.37,2013-05-27 23:55:00,
2013-05-28 01:00:00,47.1,41.3,29.08,ESE,112,0.0,0.0,80,0.00,CLR,SKC,0.00,WeatherDisplay:10.37,2013-05-28 00:00:00,
2013-05-28 01:05:00,47.1,41.3,29.08,SE,135,0.0,0.0,80,0.00,CLR,SKC,0.00,WeatherDisplay:10.37,2013-05-28 00:05:00,
2013-05-28 01:10:00,46.9,41.1,29.08,SE,135,0.0,0.0,80,0.00,CLR,SKC,0.00,WeatherDisplay:10.37,2013-05-28 00:10:00,
2013-05-28 01:15:00,46.9,41.1,29.08,SE,135,0.0,0.0,80,0.00,CLR,SKC,0.00,WeatherDisplay:10.37,2013-05-28 00:15:00,
2013-05-28 01:20:00,46.6,40.7,29.08,SE,135,0.0,0.0,80,0.00,CLR,SKC,0.00,WeatherDisplay:10.37,2013-05-28 00:20:00,
2013-05-28 01:25:00,46.6,40.7,29.08,SE,135,0.0,0.0,80,0.00,CLR,SKC,0.00,WeatherDisplay:10.37,2013-05-28 00:25:00,
2013-05-28 01:30:00,46.2,40.4,29.08,SE,135,0.0,0.0,80,0.00,CLR,SKC,0.00,WeatherDisplay:10.37,2013-05-28 00:30:00,
2013-05-28 01:35:00,46.0,40.2,29.08,SE,135,0.0,0.0,80,0.00,CLR,SKC,0.00,WeatherDisplay:10.37,2013-05-28 00:35:00,
2013-05-28 01:40:00,45.7,40.2,29.08,SE,135,0.0,0.0,81,0.00,CLR,SKC,0.00,WeatherDisplay:10.37,2013-05-28 00:40:00,
2013-05-28 01:45:00,45.1,39.7,29.08,SE,135,0.0,0.0,81,0.00,CLR,SKC,0.00,WeatherDisplay:10.37,2013-05-28 00:45:00,
2013-05-28 01:50:00,45.0,39.5,29.08,SE,135,0.0,0.0,81,0.00,CLR,SKC,0.00,WeatherDisplay:10.37,2013-05-28 00:50:00,
2013-05-28 01:55:00,44.8,39.6,29.08,SE,135,0.0,0.0,82,0.00,CLR,SKC,0.00,WeatherDisplay:10.37,2013-05-28 00:55:00,
2013-05-28 02:00:00,44.8,39.9,29.08,SE,135,0.0,0.0,83,0.00,CLR,SKC,0.00,WeatherDisplay:10.37,2013-05-28 01:00:00,
2013-05-28 02:05:00,44.8,39.9,29.08,SE,135,0.0,0.0,83,0.00,CLR,SKC,0.00,WeatherDisplay:10.37,2013-05-28 01:05:00,
2013-05-28 02:10:00,44.8,39.9,29.08,SE,135,0.0,0.0,83,0.00,CLR,SKC,0.00,WeatherDisplay:10.37,2013-05-28 01:10:00,
2013-05-28 02:15:00,45.0,40.4,29.08,SE,135,0.0,0.0,84,0.00,CLR,SKC,0.00,WeatherDisplay:10.37,2013-05-28 01:15:00,
2013-05-28 02:20:00,45.0,40.4,29.08,SE,135,0.0,0.0,84,0.00,CLR,SKC,0.00,WeatherDisplay:10.37,2013-05-28 01:20:00,
2013-05-28 02:25:00,45.0,40.4,29.09,SE,135,0.0,0.0,84,0.00,CLR,SKC,0.00,WeatherDisplay:10.37,2013-05-28 01:25:00,
2013-05-28 02:30:00,44.8,40.2,29.08,SE,135,0.0,0.0,84,0.00,CLR,SKC,0.00,WeatherDisplay:10.37,2013-05-28 01:30:00,
2013-05-28 02:35:00,44.8,40.2,29.08,SE,135,0.0,0.0,84,0.00,CLR,SKC,0.00,WeatherDisplay:10.37,2013-05-28 01:35:00,
2013-05-28 02:40:00,44.8,40.2,29.08,SE,135,0.0,0.0,84,0.00,CLR,SKC,0.00,WeatherDisplay:10.37,2013-05-28 01:40:00,
2013-05-28 02:45:00,44.8,40.2,29.08,SE,135,0.0,0.0,84,0.00,CLR,SKC,0.00,WeatherDisplay:10.37,2013-05-28 01:45:00,
2013-05-28 02:50:00,44.8,40.2,29.09,SE,135,0.0,0.0,84,0.00,CLR,SKC,0.00,WeatherDisplay:10.37,2013-05-28 01:50:00,
2013-05-28 02:55:00,44.8,40.2,29.09,SE,135,0.0,0.0,84,0.00,CLR,SKC,0.00,WeatherDisplay:10.37,2013-05-28 01:55:00,
2013-05-28 03:00:00,44.8,40.2,29.09,SE,135,0.0,0.0,84,0.00,CLR,SKC,0.00,WeatherDisplay:10.37,2013-05-28 02:00:00,
2013-05-28 03:05:00,44.8,40.2,29.08,SE,135,0.0,0.0,84,0.00,CLR,SKC,0.00,WeatherDisplay:10.37,2013-05-28 02:05:00,
2013-05-28 03:10:00,44.4,39.9,29.09,SE,135,0.0,0.0,84,0.00,CLR,SKC,0.00,WeatherDisplay:10.37,2013-05-28 02:10:00,
2013-05-28 03:15:00,44.4,39.9,29.09,SE,135,0.0,0.0,84,0.00,CLR,SKC,0.00,WeatherDisplay:10.37,2013-05-28 02:15:00,
2013-05-28 03:20:00,44.4,39.9,29.09,SE,135,0.0,0.0,84,0.00,CLR,SKC,0.00,WeatherDisplay:10.37,2013-05-28 02:20:00,
2013-05-28 03:26:00,44.4,39.9,29.08,SE,135,0.0,0.0,84,0.00,CLR,SKC,0.00,WeatherDisplay:10.37,2013-05-28 02:26:00,
2013-05-28 03:31:00,44.2,39.7,29.09,SE,135,0.0,0.0,84,0.00,CLR,SKC,0.00,WeatherDisplay:10.37,2013-05-28 02:31:00,
2013-05-28 03:36:00,44.1,39.5,29.09,SE,135,0.0,0.0,84,0.00,CLR,SKC,0.00,WeatherDisplay:10.37,2013-05-28 02:36:00,
2013-05-28 03:41:00,43.9,39.4,29.09,SE,135,0.0,0.0,84,0.00,CLR,SKC,0.00,WeatherDisplay:10.37,2013-05-28 02:41:00,
2013-05-28 03:46:00,43.9,39.4,29.09,SE,135,0.0,0.0,84,0.00,CLR,SKC,0.00,WeatherDisplay:10.37,2013-05-28 02:46:00,
2013-05-28 03:51:00,44.1,39.8,29.09,SE,135,0.0,0.0,85,0.00,CLR,SKC,0.00,WeatherDisplay:10.37,2013-05-28 02:51:00,
2013-05-28 03:56:00,44.2,40.0,29.09,SE,135,0.0,0.0,85,0.00,CLR,SKC,0.00,WeatherDisplay:10.37,2013-05-28 02:56:00,
2013-05-28 04:01:00,44.2,40.0,29.09,SE,135,0.0,0.0,85,0.00,CLR,SKC,0.00,WeatherDisplay:10.37,2013-05-28 03:01:00,
2013-05-28 04:06:00,44.2,40.0,29.10,SE,135,0.0,0.0,85,0.00,CLR,SKC,0.00,WeatherDisplay:10.37,2013-05-28 03:06:00,
2013-05-28 04:11:00,44.4,40.2,29.10,SE,135,0.0,0.0,85,0.00,CLR,SKC,0.00,WeatherDisplay:10.37,2013-05-28 03:11:00,
2013-05-28 04:16:00,44.4,40.2,29.10,SE,135,0.0,0.0,85,0.00,CLR,SKC,0.00,WeatherDisplay:10.37,2013-05-28 03:16:00,
2013-05-28 04:21:00,44.4,40.2,29.10,SSE,158,0.0,0.0,85,0.00,CLR,SKC,0.00,WeatherDisplay:10.37,2013-05-28 03:21:00,
2013-05-28 04:26:00,44.6,40.4,29.10,SSE,158,0.0,0.0,85,0.00,CLR,SKC,0.00,WeatherDisplay:10.37,2013-05-28 03:26:00,
2013-05-28 04:31:00,44.8,40.5,29.10,SSE,158,0.0,0.0,85,0.00,CLR,SKC,0.00,WeatherDisplay:10.37,2013-05-28 03:31:00,
2013-05-28 04:36:00,44.8,40.5,29.10,SSE,158,0.0,0.0,85,0.00,CLR,SKC,0.00,WeatherDisplay:10.37,2013-05-28 03:36:00,
2013-05-28 04:41:00,44.8,40.5,29.10,SSE,158,0.0,0.0,85,0.00,CLR,SKC,0.00,WeatherDisplay:10.37,2013-05-28 03:41:00,
2013-05-28 04:46:00,44.8,40.5,29.10,SSE,158,0.0,0.0,85,0.00,CLR,SKC,0.00,WeatherDisplay:10.37,2013-05-28 03:46:00,
2013-05-28 04:51:00,44.6,40.4,29.10,SSE,158,0.0,0.0,85,0.00,CLR,SKC,0.00,WeatherDisplay:10.37,2013-05-28 03:51:00,
2013-05-28 04:56:00,44.8,40.8,29.10,SSE,158,0.0,0.0,86,0.00,CLR,SKC,0.00,WeatherDisplay:10.37,2013-05-28 03:56:00,
2013-05-28 05:01:00,44.8,40.8,29.11,SSE,158,0.0,0.0,86,0.00,CLR,SKC,0.00,WeatherDisplay:10.37,2013-05-28 04:01:00,
2013-05-28 05:02:00,45.0,41.0,29.11,SSE,158,0.0,0.0,86,0.00,CLR,SKC,0.00,WeatherDisplay:10.37,2013-05-28 04:02:00,
2013-05-28 05:07:00,45.0,41.0,29.11,SSE,158,0.0,0.0,86,0.00,CLR,SKC,0.00,WeatherDisplay:10.37,2013-05-28 04:07:00,
2013-05-28 05:12:00,45.0,41.0,29.11,SSE,158,0.0,0.0,86,0.00,CLR,SKC,0.00,WeatherDisplay:10.37,2013-05-28 04:12:00,
2013-05-28 05:17:00,45.0,41.0,29.11,SSE,158,0.0,0.0,86,0.00,CLR,SKC,0.00,WeatherDisplay:10.37,2013-05-28 04:17:00,
2013-05-28 05:22:00,45.0,41.0,29.11,SSE,158,0.0,0.0,86,0.02,RA,SKC,0.02,WeatherDisplay:10.37,2013-05-28 04:22:00,
2013-05-28 05:27:00,45.1,41.2,29.11,SSE,158,0.0,0.0,86,0.02,RA,SKC,0.02,WeatherDisplay:10.37,2013-05-28 04:27:00,
2013-05-28 05:32:00,45.1,41.5,29.11,SSE,158,0.0,0.0,87,0.02,,SKC,0.02,WeatherDisplay:10.37,2013-05-28 04:32:00,
2013-05-28 05:37:00,45.3,41.7,29.11,SSE,158,0.0,0.0,87,0.02,CLR,SKC,0.02,WeatherDisplay:10.37,2013-05-28 04:37:00,
2013-05-28 05:42:00,45.3,41.7,29.12,SSE,158,0.0,0.0,87,0.02,CLR,SKC,0.02,WeatherDisplay:10.37,2013-05-28 04:42:00,
2013-05-28 05:47:00,45.5,41.9,29.12,SSE,158,0.0,0.0,87,0.02,CLR,SKC,0.02,WeatherDisplay:10.37,2013-05-28 04:47:00,
2013-05-28 05:52:00,45.5,41.9,29.12,SSE,158,0.0,0.0,87,0.02,CLR,SKC,0.02,WeatherDisplay:10.37,2013-05-28 04:52:00,
2013-05-28 05:57:00,45.5,41.9,29.12,SSE,158,0.0,0.0,87,0.02,CLR,SKC,0.02,WeatherDisplay:10.37,2013-05-28 04:57:00,
2013-05-28 06:02:00,45.7,42.0,29.12,SSE,158,0.0,0.0,87,0.02,CLR,SKC,0.02,WeatherDisplay:10.37,2013-05-28 05:02:00,
2013-05-28 06:07:00,45.7,42.0,29.12,SSE,158,0.0,0.0,87,0.02,CLR,SKC,0.02,WeatherDisplay:10.37,2013-05-28 05:07:00,
2013-05-28 06:12:00,46.0,42.4,29.12,SSE,158,0.0,0.0,87,0.02,CLR,SKC,0.02,WeatherDisplay:10.37,2013-05-28 05:12:00,
2013-05-28 06:17:00,46.0,42.4,29.12,SSE,158,0.0,0.0,87,0.04,RA,SKC,0.04,WeatherDisplay:10.37,2013-05-28 05:17:00,
2013-05-28 06:22:00,46.0,42.4,29.12,SSE,158,0.0,0.0,87,0.02,RA,SKC,0.04,WeatherDisplay:10.37,2013-05-28 05:22:00,
2013-05-28 06:27:00,46.0,42.4,29.12,SSE,158,0.0,0.0,87,0.02,,SKC,0.04,WeatherDisplay:10.37,2013-05-28 05:27:00,
2013-05-28 06:32:00,46.2,42.6,29.12,SSE,158,0.0,0.0,87,0.02,CLR,SKC,0.04,WeatherDisplay:10.37,2013-05-28 05:32:00,
2013-05-28 06:37:00,46.6,42.9,29.12,SSE,158,0.0,0.0,87,0.02,CLR,SKC,0.04,WeatherDisplay:10.37,2013-05-28 05:37:00,
2013-05-28 06:42:00,46.6,42.9,29.12,SSE,158,0.0,0.0,87,0.02,CLR,SKC,0.04,WeatherDisplay:10.37,2013-05-28 05:42:00,
2013-05-28 06:47:00,47.1,43.7,29.12,SSE,158,0.0,0.0,88,0.02,CLR,SKC,0.04,WeatherDisplay:10.37,2013-05-28 05:47:00,
2013-05-28 06:52:00,47.3,43.9,29.12,SSE,158,0.0,0.0,88,0.02,CLR,SKC,0.04,WeatherDisplay:10.37,2013-05-28 05:52:00,
2013-05-28 06:57:00,47.5,44.1,29.13,South,180,0.0,0.0,88,0.02,CLR,SKC,0.04,WeatherDisplay:10.37,2013-05-28 05:57:00,
2013-05-28 07:02:00,48.0,44.6,29.13,South,180,0.0,0.0,88,0.02,CLR,SKC,0.04,WeatherDisplay:10.37,2013-05-28 06:02:00,
2013-05-28 07:07:00,48.2,44.8,29.13,South,180,0.0,0.0,88,0.02,CLR,SKC,0.04,WeatherDisplay:10.37,2013-05-28 06:07:00,
2013-05-28 07:12:00,48.6,45.2,29.14,South,180,0.0,0.0,88,0.02,CLR,SKC,0.04,WeatherDisplay:10.37,2013-05-28 06:12:00,
2013-05-28 07:17:00,48.7,45.3,29.14,South,180,0.0,0.0,88,0.00,CLR,SKC,0.04,WeatherDisplay:10.37,2013-05-28 06:17:00,
2013-05-28 07:22:00,49.1,45.7,29.14,South,180,0.0,0.0,88,0.00,CLR,SKC,0.04,WeatherDisplay:10.37,2013-05-28 06:22:00,
2013-05-28 07:27:00,49.5,46.1,29.14,South,180,0.0,0.0,88,0.00,CLR,SKC,0.04,WeatherDisplay:10.37,2013-05-28 06:27:00,
2013-05-28 07:32:00,49.8,46.4,29.14,South,180,0.0,0.0,88,0.00,CLR,SKC,0.04,WeatherDisplay:10.37,2013-05-28 06:32:00,
2013-05-28 07:37:00,50.4,46.9,29.14,South,180,0.0,0.0,88,0.00,CLR,SKC,0.04,WeatherDisplay:10.37,2013-05-28 06:37:00,
2013-05-28 07:42:00,50.7,47.3,29.15,South,180,0.0,0.0,88,0.00,CLR,SKC,0.04,WeatherDisplay:10.37,2013-05-28 06:42:00,
2013-05-28 07:47:00,51.1,47.3,29.15,South,180,0.0,0.0,87,0.00,CLR,SKC,0.04,WeatherDisplay:10.37,2013-05-28 06:47:00,
2013-05-28 07:52:00,51.6,47.9,29.15,South,180,0.0,0.0,87,0.00,CLR,SKC,0.04,WeatherDisplay:10.37,2013-05-28 06:52:00,
2013-05-28 07:57:00,52.0,47.9,29.15,South,180,0.0,0.0,86,0.00,CLR,SKC,0.04,WeatherDisplay:10.37,2013-05-28 06:57:00,
2013-05-28 08:03:00,52.0,47.9,29.15,South,180,0.0,0.0,86,0.00,CLR,SKC,0.04,WeatherDisplay:10.37,2013-05-28 07:03:00,
2013-05-28 08:08:00,52.3,48.0,29.15,South,180,0.0,0.0,85,0.00,CLR,SKC,0.04,WeatherDisplay:10.37,2013-05-28 07:08:00,
2013-05-28 08:13:00,52.7,48.3,29.15,SSE,158,0.0,0.0,85,0.00,CLR,SKC,0.04,WeatherDisplay:10.37,2013-05-28 07:13:00,
2013-05-28 08:18:00,52.7,47.7,29.15,SE,135,0.0,0.0,83,0.00,CLR,SKC,0.04,WeatherDisplay:10.37,2013-05-28 07:18:00,
2013-05-28 08:23:00,52.7,47.7,29.16,SE,135,0.0,0.0,83,0.00,CLR,SKC,0.04,WeatherDisplay:10.37,2013-05-28 07:23:00,
2013-05-28 08:28:00,53.2,47.9,29.16,South,180,0.0,0.0,82,0.00,CLR,SKC,0.04,WeatherDisplay:10.37,2013-05-28 07:28:00,
2013-05-28 08:33:00,53.4,48.1,29.15,ESE,112,0.0,0.0,82,0.00,CLR,SKC,0.04,WeatherDisplay:10.37,2013-05-28 07:33:00,
2013-05-28 08:38:00,53.8,48.1,29.16,SW,225,0.0,0.0,81,0.00,CLR,SKC,0.04,WeatherDisplay:10.37,2013-05-28 07:38:00,
2013-05-28 08:43:00,54.0,47.9,29.16,SE,135,0.0,0.0,80,0.00,CLR,SKC,0.04,WeatherDisplay:10.37,2013-05-28 07:43:00,
2013-05-28 08:48:00,54.3,48.3,29.15,WSW,248,0.0,0.0,80,0.00,CLR,SKC,0.04,WeatherDisplay:10.37,2013-05-28 07:48:00,
2013-05-28 08:53:00,54.7,48.6,29.16,WSW,248,0.0,0.0,80,0.00,CLR,SKC,0.04,WeatherDisplay:10.37,2013-05-28 07:53:00,
2013-05-28 08:58:00,55.2,48.8,29.16,SW,225,0.0,0.0,79,0.00,CLR,SKC,0.04,WeatherDisplay:10.37,2013-05-28 07:58:00,
2013-05-28 09:03:00,55.8,49.0,29.16,East,90,0.0,0.0,78,0.00,CLR,SKC,0.04,WeatherDisplay:10.37,2013-05-28 08:03:00,
2013-05-28 09:08:00,57.6,50.4,29.16,SSW,202,0.0,0.0,77,0.00,CLR,SKC,0.04,WeatherDisplay:10.37,2013-05-28 08:08:00,
2013-05-28 09:13:00,58.3,49.7,29.16,SW,225,0.0,0.0,73,0.00,CLR,SKC,0.04,WeatherDisplay:10.37,2013-05-28 08:13:00,
2013-05-28 09:18:00,57.9,48.6,29.17,SE,135,0.0,0.0,71,0.00,CLR,SKC,0.04,WeatherDisplay:10.37,2013-05-28 08:18:00,
2013-05-28 09:23:00,56.8,47.2,29.17,SSE,158,0.0,0.0,70,0.00,CLR,SKC,0.04,WeatherDisplay:10.37,2013-05-28 08:23:00,
2013-05-28 09:28:00,55.9,46.7,29.17,SE,135,0.0,0.0,71,0.00,CLR,SKC,0.04,WeatherDisplay:10.37,2013-05-28 08:28:00,
2013-05-28 09:33:00,55.6,46.3,29.17,SSE,158,0.0,0.0,71,0.00,CLR,SKC,0.04,WeatherDisplay:10.37,2013-05-28 08:33:00,
2013-05-28 09:38:00,55.2,46.3,29.18,SSW,202,0.0,0.0,72,0.00,CLR,SKC,0.04,WeatherDisplay:10.37,2013-05-28 08:38:00,
2013-05-28 09:43:00,55.0,46.2,29.18,SW,225,0.0,0.0,72,0.00,CLR,SKC,0.04,WeatherDisplay:10.37,2013-05-28 08:43:00,
2013-05-28 09:48:00,55.0,46.2,29.18,SW,225,0.0,0.0,72,0.00,CLR,SKC,0.04,WeatherDisplay:10.37,2013-05-28 08:48:00,
2013-05-28 09:53:00,55.0,46.2,29.18,SSE,158,0.0,0.0,72,0.00,CLR,SKC,0.04,WeatherDisplay:10.37,2013-05-28 08:53:00,
2013-05-28 09:58:00,55.2,46.3,29.18,South,180,0.0,0.0,72,0.00,CLR,SKC,0.04,WeatherDisplay:10.37,2013-05-28 08:58:00,
2013-05-28 10:03:00,57.6,49.0,29.18,SW,225,0.0,0.0,73,0.00,CLR,SKC,0.04,WeatherDisplay:10.37,2013-05-28 09:03:00,
2013-05-28 10:08:00,58.1,47.6,29.18,SE,135,0.0,0.0,68,0.00,CLR,SKC,0.04,WeatherDisplay:10.37,2013-05-28 09:08:00,
2013-05-28 10:13:00,58.8,48.7,29.18,SSE,158,0.0,0.0,69,0.00,CLR,SKC,0.04,WeatherDisplay:10.37,2013-05-28 09:13:00,
2013-05-28 10:18:00,61.9,50.8,29.18,SE,135,0.0,0.0,67,0.00,CLR,SKC,0.04,WeatherDisplay:10.37,2013-05-28 09:18:00,
2013-05-28 10:23:00,64.0,50.8,29.18,SW,225,0.0,0.0,62,0.00,CLR,SKC,0.04,WeatherDisplay:10.37,2013-05-28 09:23:00,
2013-05-28 10:28:00,62.8,47.8,29.18,SE,135,0.0,0.0,58,0.00,CLR,SKC,0.04,WeatherDisplay:10.37,2013-05-28 09:28:00,
2013-05-28 10:33:00,61.5,47.1,29.19,SSE,158,0.0,0.0,59,0.00,CLR,SKC,0.04,WeatherDisplay:10.37,2013-05-28 09:33:00,
2013-05-28 10:38:00,60.1,46.1,29.19,SW,225,0.0,0.0,60,0.00,CLR,SKC,0.04,WeatherDisplay:10.37,2013-05-28 09:38:00,
2013-05-28 10:43:00,59.2,45.7,29.19,SSE,158,0.0,0.0,61,0.00,CLR,SKC,0.04,WeatherDisplay:10.37,2013-05-28 09:43:00,
2013-05-28 10:48:00,58.5,45.1,29.18,ESE,112,0.0,0.0,61,0.00,CLR,SKC,0.04,WeatherDisplay:10.37,2013-05-28 09:48:00,
2013-05-28 10:53:00,58.3,45.3,29.19,SE,135,0.0,0.0,62,0.00,CLR,SKC,0.04,WeatherDisplay:10.37,2013-05-28 09:53:00,
2013-05-28 10:58:00,57.7,45.2,29.19,SW,225,0.0,0.0,63,0.00,CLR,SKC,0.04,WeatherDisplay:10.37,2013-05-28 09:58:00,
2013-05-28 11:03:00,57.7,45.2,29.19,ESE,112,0.0,0.0,63,0.00,CLR,SKC,0.04,WeatherDisplay:10.37,2013-05-28 10:03:00,
2013-05-28 11:08:00,57.4,44.9,29.19,SW,225,0.0,0.0,63,0.00,CLR,SKC,0.04,WeatherDisplay:10.37,2013-05-28 10:08:00,
2013-05-28 11:13:00,57.4,44.9,29.19,ESE,112,0.0,0.0,63,0.00,CLR,SKC,0.04,WeatherDisplay:10.37,2013-05-28 10:13:00,
2013-05-28 11:18:00,57.6,45.5,29.19,South,180,0.0,0.0,64,0.00,CLR,SKC,0.04,WeatherDisplay:10.37,2013-05-28 10:18:00,
2013-05-28 11:23:00,58.1,45.6,29.19,South,180,0.0,0.0,63,0.00,CLR,SKC,0.04,WeatherDisplay:10.37,2013-05-28 10:23:00,
2013-05-28 11:28:00,58.6,46.1,29.19,SE,135,0.0,0.0,63,0.00,CLR,SKC,0.04,WeatherDisplay:10.37,2013-05-28 10:28:00,
2013-05-28 11:33:00,58.8,45.8,29.19,SW,225,0.0,0.0,62,0.00,CLR,SKC,0.04,WeatherDisplay:10.37,2013-05-28 10:33:00,
2013-05-28 11:38:00,60.4,46.9,29.19,East,90,0.0,0.0,61,0.00,CLR,SKC,0.04,WeatherDisplay:10.37,2013-05-28 10:38:00,
2013-05-28 11:43:00,60.6,46.7,29.20,SE,135,0.0,0.0,60,0.00,CLR,SKC,0.04,WeatherDisplay:10.37,2013-05-28 10:43:00,
2013-05-28 11:48:00,60.1,45.7,29.20,SE,135,0.0,0.0,59,0.00,CLR,SKC,0.04,WeatherDisplay:10.37,2013-05-28 10:48:00,
2013-05-28 11:53:00,60.6,46.7,29.20,SE,135,0.0,0.0,60,0.00,CLR,SKC,0.04,WeatherDisplay:10.37,2013-05-28 10:53:00,
2013-05-28 11:58:00,60.6,46.2,29.20,SE,135,0.0,0.0,59,0.00,CLR,SKC,0.04,WeatherDisplay:10.37,2013-05-28 10:58:00,
2013-05-28 12:03:00,60.6,45.8,29.20,SE,135,0.0,0.0,58,0.00,CLR,SKC,0.04,WeatherDisplay:10.37,2013-05-28 11:03:00,
2013-05-28 12:08:00,59.7,44.9,29.20,SE,135,0.0,0.0,58,0.00,CLR,SKC,0.04,WeatherDisplay:10.37,2013-05-28 11:08:00,
2013-05-28 12:13:00,58.8,44.1,29.20,SSE,158,0.0,0.0,58,0.00,CLR,SKC,0.04,WeatherDisplay:10.37,2013-05-28 11:13:00,
2013-05-28 12:18:00,58.6,44.3,29.20,SE,135,0.0,0.0,59,0.00,CLR,SKC,0.04,WeatherDisplay:10.37,2013-05-28 11:18:00,
2013-05-28 12:23:00,57.6,43.8,29.20,SE,135,0.0,0.0,60,0.00,CLR,SKC,0.04,WeatherDisplay:10.37,2013-05-28 11:23:00,
2013-05-28 12:28:00,57.4,43.6,29.20,SE,135,0.0,0.0,60,0.00,CLR,SKC,0.04,WeatherDisplay:10.37,2013-05-28 11:28:00,
2013-05-28 12:33:00,57.7,44.4,29.20,SSE,158,0.0,0.0,61,0.00,CLR,SKC,0.04,WeatherDisplay:10.37,2013-05-28 11:33:00,
2013-05-28 12:38:00,57.9,44.1,29.20,ESE,112,0.0,0.0,60,0.00,CLR,SKC,0.04,WeatherDisplay:10.37,2013-05-28 11:38:00,
2013-05-28 12:43:00,57.6,44.2,29.21,ESE,112,0.0,0.0,61,0.00,CLR,SKC,0.04,WeatherDisplay:10.37,2013-05-28 11:43:00,
2013-05-28 12:48:00,57.7,44.8,29.21,SE,135,0.0,0.0,62,0.00,CLR,SKC,0.04,WeatherDisplay:10.37,2013-05-28 11:48:00,
2013-05-28 12:53:00,57.9,45.0,29.21,ESE,112,0.0,0.0,62,0.00,CLR,SKC,0.04,WeatherDisplay:10.37,2013-05-28 11:53:00,
2013-05-28 12:58:00,57.7,44.8,29.21,ESE,112,0.0,0.0,62,0.00,CLR,SKC,0.04,WeatherDisplay:10.37,2013-05-28 11:58:00,
2013-05-28 13:03:00,57.4,44.9,29.21,ESE,112,0.0,0.0,63,0.00,CLR,SKC,0.04,WeatherDisplay:10.37,2013-05-28 12:03:00,
2013-05-28 13:08:00,56.5,44.4,29.21,East,90,0.0,0.0,64,0.00,CLR,SKC,0.04,WeatherDisplay:10.37,2013-05-28 12:08:00,
2013-05-28 13:13:00,56.3,44.7,29.21,ESE,112,0.0,0.0,65,0.00,CLR,SKC,0.04,WeatherDisplay:10.37,2013-05-28 12:13:00,
2013-05-28 13:18:00,55.2,44.1,29.21,ESE,112,0.0,0.0,66,0.00,CLR,SKC,0.04,WeatherDisplay:10.37,2013-05-28 12:18:00,
2013-05-28 13:23:00,55.0,43.9,29.21,East,90,0.0,0.0,66,0.00,CLR,SKC,0.04,WeatherDisplay:10.37,2013-05-28 12:23:00,
2013-05-28 13:28:00,54.9,44.1,29.21,SE,135,0.0,0.0,67,0.00,CLR,SKC,0.04,WeatherDisplay:10.37,2013-05-28 12:28:00,
2013-05-28 13:33:00,54.5,44.2,29.22,SE,135,0.0,0.0,68,0.00,CLR,SKC,0.04,WeatherDisplay:10.37,2013-05-28 12:33:00,
2013-05-28 13:38:00,54.3,44.0,29.22,SE,135,0.0,0.0,68,0.00,CLR,SKC,0.04,WeatherDisplay:10.37,2013-05-28 12:38:00,
2013-05-28 13:43:00,54.1,44.2,29.22,SE,135,0.0,0.0,69,0.00,CLR,SKC,0.04,WeatherDisplay:10.37,2013-05-28 12:43:00,
2013-05-28 13:48:00,54.1,44.2,29.23,East,90,0.0,0.0,69,0.00,CLR,SKC,0.04,WeatherDisplay:10.37,2013-05-28 12:48:00,
2013-05-28 13:53:00,54.0,44.0,29.22,ESE,112,0.0,0.0,69,0.00,CLR,SKC,0.04,WeatherDisplay:10.37,2013-05-28 12:53:00,
2013-05-28 13:58:00,54.0,44.4,29.22,ESE,112,0.0,0.0,70,0.00,CLR,SKC,0.04,WeatherDisplay:10.37,2013-05-28 12:58:00,
2013-05-28 14:04:00,54.0,44.8,29.23,ESE,112,0.0,0.0,71,0.00,CLR,SKC,0.04,WeatherDisplay:10.37,2013-05-28 13:04:00,
2013-05-28 14:09:00,54.1,44.9,29.23,ESE,112,0.0,0.0,71,0.00,CLR,SKC,0.04,WeatherDisplay:10.37,2013-05-28 13:09:00,
2013-05-28 14:14:00,54.3,44.7,29.23,ESE,112,0.0,0.0,70,0.00,CLR,SKC,0.04,WeatherDisplay:10.37,2013-05-28 13:14:00,
2013-05-28 14:19:00,54.9,45.3,29.23,SSW,202,0.0,0.0,70,0.00,CLR,SKC,0.04,WeatherDisplay:10.37,2013-05-28 13:19:00,
2013-05-28 14:24:00,55.0,45.1,29.23,SE,135,0.0,0.0,69,0.00,CLR,SKC,0.04,WeatherDisplay:10.37,2013-05-28 13:24:00,
2013-05-28 14:29:00,55.2,45.2,29.23,ESE,112,0.0,0.0,69,0.00,CLR,SKC,0.04,WeatherDisplay:10.37,2013-05-28 13:29:00,
2013-05-28 14:34:00,55.4,45.4,29.24,ESE,112,0.0,0.0,69,0.00,CLR,SKC,0.04,WeatherDisplay:10.37,2013-05-28 13:34:00,
2013-05-28 14:39:00,55.6,45.2,29.23,SSE,158,0.0,0.0,68,0.00,CLR,SKC,0.04,WeatherDisplay:10.37,2013-05-28 13:39:00,
2013-05-28 14:44:00,55.6,44.8,29.23,ESE,112,0.0,0.0,67,0.00,CLR,SKC,0.04,WeatherDisplay:10.37,2013-05-28 13:44:00,
2013-05-28 14:49:00,55.8,45.0,29.23,SSE,158,0.0,0.0,67,0.00,CLR,SKC,0.04,WeatherDisplay:10.37,2013-05-28 13:49:00,
2013-05-28 14:54:00,55.8,44.6,29.23,ESE,112,0.0,0.0,66,0.00,CLR,SKC,0.04,WeatherDisplay:10.37,2013-05-28 13:54:00,
2013-05-28 14:59:00,56.1,44.9,29.24,South,180,0.0,0.0,66,0.00,CLR,SKC,0.04,WeatherDisplay:10.37,2013-05-28 13:59:00,
2013-05-28 15:04:00,56.5,45.3,29.24,SE,135,0.0,0.0,66,0.00,CLR,SKC,0.04,WeatherDisplay:10.37,2013-05-28 14:04:00,
2013-05-28 15:09:00,56.5,45.3,29.24,East,90,0.0,0.0,66,0.00,CLR,SKC,0.04,WeatherDisplay:10.37,2013-05-28 14:09:00,
2013-05-28 15:14:00,56.5,45.7,29.24,East,90,0.0,0.0,67,0.00,CLR,SKC,0.04,WeatherDisplay:10.37,2013-05-28 14:14:00,
2013-05-28 15:19:00,56.5,45.7,29.24,East,90,0.0,0.0,67,0.00,CLR,SKC,0.04,WeatherDisplay:10.37,2013-05-28 14:19:00,
2013-05-28 15:24:00,57.0,46.2,29.24,SE,135,0.0,0.0,67,0.00,CLR,SKC,0.04,WeatherDisplay:10.37,2013-05-28 14:24:00,
2013-05-28 15:29:00,57.6,46.7,29.24,East,90,0.0,0.0,67,0.00,CLR,SKC,0.04,WeatherDisplay:10.37,2013-05-28 14:29:00,
2013-05-28 15:34:00,57.9,46.6,29.24,ESE,112,0.0,0.0,66,0.00,CLR,SKC,0.04,WeatherDisplay:10.37,2013-05-28 14:34:00,
2013-05-28 15:39:00,58.1,46.8,29.24,SSE,158,0.0,0.0,66,0.00,CLR,SKC,0.04,WeatherDisplay:10.37,2013-05-28 14:39:00,
2013-05-28 15:44:00,58.3,46.6,29.24,ESE,112,0.0,0.0,65,0.00,CLR,SKC,0.04,WeatherDisplay:10.37,2013-05-28 14:44:00,
2013-05-28 15:49:00,58.8,46.7,29.24,ESE,112,0.0,0.0,64,0.00,CLR,SKC,0.04,WeatherDisplay:10.37,2013-05-28 14:49:00,
2013-05-28 15:54:00,58.8,46.7,29.24,ESE,112,0.0,0.0,64,0.00,CLR,SKC,0.04,WeatherDisplay:10.37,2013-05-28 14:54:00,
2013-05-28 15:59:00,59.2,47.0,29.24,ESE,112,0.0,0.0,64,0.00,CLR,SKC,0.04,WeatherDisplay:10.37,2013-05-28 14:59:00,
2013-05-28 16:04:00,59.5,46.9,29.24,ESE,112,0.0,0.0,63,0.00,CLR,SKC,0.04,WeatherDisplay:10.37,2013-05-28 15:04:00,
2013-05-28 16:09:00,59.7,46.7,29.25,ENE,68,0.0,0.0,62,0.00,CLR,SKC,0.04,WeatherDisplay:10.37,2013-05-28 15:09:00,
2013-05-28 16:14:00,59.7,46.2,29.25,ESE,112,0.0,0.0,61,0.00,CLR,SKC,0.04,WeatherDisplay:10.37,2013-05-28 15:14:00,
2013-05-28 16:19:00,59.5,45.6,29.25,SE,135,0.0,0.0,60,0.00,CLR,SKC,0.04,WeatherDisplay:10.37,2013-05-28 15:19:00,
2013-05-28 16:24:00,59.5,45.2,29.24,ESE,112,0.0,0.0,59,0.00,CLR,SKC,0.04,WeatherDisplay:10.37,2013-05-28 15:24:00,
2013-05-28 16:29:00,59.2,44.9,29.24,SSE,158,0.0,0.0,59,0.00,CLR,SKC,0.04,WeatherDisplay:10.37,2013-05-28 15:29:00,
2013-05-28 16:34:00,58.8,44.5,29.25,ESE,112,0.0,0.0,59,0.00,CLR,SKC,0.04,WeatherDisplay:10.37,2013-05-28 15:34:00,
2013-05-28 16:39:00,58.8,45.0,29.25,ESE,112,0.0,0.0,60,0.00,CLR,SKC,0.04,WeatherDisplay:10.37,2013-05-28 15:39:00,
2013-05-28 16:44:00,58.8,44.5,29.25,East,90,0.0,0.0,59,0.00,CLR,SKC,0.04,WeatherDisplay:10.37,2013-05-28 15:44:00,
2013-05-28 16:49:00,58.8,45.0,29.24,SE,135,0.0,0.0,60,0.00,CLR,SKC,0.04,WeatherDisplay:10.37,2013-05-28 15:49:00,
2013-05-28 16:54:00,58.8,44.5,29.24,SE,135,0.0,0.0,59,0.00,CLR,SKC,0.04,WeatherDisplay:10.37,2013-05-28 15:54:00,
2013-05-28 16:59:00,59.0,44.7,29.24,SSE,158,0.0,0.0,59,0.00,CLR,SKC,0.04,WeatherDisplay:10.37,2013-05-28 15:59:00,
2013-05-28 17:04:00,59.0,44.7,29.25,ESE,112,0.0,0.0,59,0.00,CLR,SKC,0.04,WeatherDisplay:10.37,2013-05-28 16:04:00,
2013-05-28 17:09:00,58.8,44.5,29.25,ESE,112,0.0,0.0,59,0.00,CLR,SKC,0.04,WeatherDisplay:10.37,2013-05-28 16:09:00,
2013-05-28 17:14:00,58.8,45.0,29.25,ESE,112,0.0,0.0,60,0.00,CLR,SKC,0.04,WeatherDisplay:10.37,2013-05-28 16:14:00,
2013-05-28 17:19:00,58.8,45.0,29.25,East,90,0.0,0.0,60,0.00,CLR,SKC,0.04,WeatherDisplay:10.37,2013-05-28 16:19:00,
2013-05-28 17:24:00,58.6,45.2,29.25,ESE,112,0.0,0.0,61,0.00,CLR,SKC,0.04,WeatherDisplay:10.37,2013-05-28 16:24:00,
2013-05-28 17:29:00,58.1,44.7,29.25,East,90,0.0,0.0,61,0.00,CLR,SKC,0.04,WeatherDisplay:10.37,2013-05-28 16:29:00,
2013-05-28 17:34:00,57.7,45.2,29.25,SE,135,0.0,0.0,63,0.00,CLR,SKC,0.04,WeatherDisplay:10.37,2013-05-28 16:34:00,
2013-05-28 17:39:00,57.6,45.1,29.25,ESE,112,0.0,0.0,63,0.00,CLR,SKC,0.04,WeatherDisplay:10.37,2013-05-28 16:39:00,
2013-05-28 17:44:00,57.4,45.3,29.25,East,90,0.0,0.0,64,0.00,CLR,SKC,0.04,WeatherDisplay:10.37,2013-05-28 16:44:00,
2013-05-28 17:49:00,56.5,44.9,29.25,East,90,0.0,0.0,65,0.00,CLR,SKC,0.04,WeatherDisplay:10.37,2013-05-28 16:49:00,
2013-05-28 17:54:00,56.3,45.1,29.25,East,90,0.0,0.0,66,0.00,CLR,SKC,0.04,WeatherDisplay:10.37,2013-05-28 16:54:00,
2013-05-28 17:59:00,55.9,45.1,29.25,SE,135,0.0,0.0,67,0.00,CLR,SKC,0.04,WeatherDisplay:10.37,2013-05-28 16:59:00,
2013-05-28 18:04:00,55.6,44.8,29.25,ESE,112,0.0,0.0,67,0.00,CLR,SKC,0.04,WeatherDisplay:10.37,2013-05-28 17:04:00,
2013-05-28 18:09:00,55.2,44.4,29.25,SSE,158,0.0,0.0,67,0.00,CLR,SKC,0.04,WeatherDisplay:10.37,2013-05-28 17:09:00,
2013-05-28 18:14:00,55.4,45.0,29.25,ESE,112,0.0,0.0,68,0.00,CLR,SKC,0.04,WeatherDisplay:10.37,2013-05-28 17:14:00,
2013-05-28 18:19:00,55.4,45.0,29.26,SSE,158,0.0,0.0,68,0.00,CLR,SKC,0.04,WeatherDisplay:10.37,2013-05-28 17:19:00,
2013-05-28 18:24:00,55.4,45.0,29.26,SE,135,0.0,0.0,68,0.00,CLR,SKC,0.04,WeatherDisplay:10.37,2013-05-28 17:24:00,
2013-05-28 18:29:00,55.2,44.8,29.26,South,180,0.0,0.0,68,0.00,CLR,SKC,0.04,WeatherDisplay:10.37,2013-05-28 17:29:00,
2013-05-28 18:34:00,55.2,44.8,29.26,SSW,202,0.0,0.0,68,0.00,CLR,SKC,0.04,WeatherDisplay:10.37,2013-05-28 17:34:00,
2013-05-28 18:39:00,55.2,44.8,29.26,SW,225,0.0,0.0,68,0.00,CLR,SKC,0.04,WeatherDisplay:10.37,2013-05-28 17:39:00,
2013-05-28 18:44:00,55.4,44.6,29.26,ESE,112,0.0,0.0,67,0.00,CLR,SKC,0.04,WeatherDisplay:10.37,2013-05-28 17:44:00,
2013-05-28 18:49:00,55.6,44.8,29.26,SSW,202,0.0,0.0,67,0.00,CLR,SKC,0.04,WeatherDisplay:10.37,2013-05-28 17:49:00,
2013-05-28 18:54:00,55.6,44.8,29.27,SE,135,0.0,0.0,67,0.00,CLR,SKC,0.04,WeatherDisplay:10.37,2013-05-28 17:54:00,
2013-05-28 18:59:00,55.6,44.8,29.27,SE,135,0.0,0.0,67,0.00,CLR,SKC,0.04,WeatherDisplay:10.37,2013-05-28 17:59:00,
2013-05-28 19:04:00,55.6,45.2,29.27,East,90,0.0,0.0,68,0.00,CLR,SKC,0.04,WeatherDisplay:10.37,2013-05-28 18:04:00,
2013-05-28 19:09:00,55.4,45.0,29.27,East,90,0.0,0.0,68,0.00,CLR,SKC,0.04,WeatherDisplay:10.37,2013-05-28 18:09:00,
2013-05-28 19:14:00,55.4,45.0,29.27,ESE,112,0.0,0.0,68,0.00,CLR,SKC,0.04,WeatherDisplay:10.37,2013-05-28 18:14:00,
2013-05-28 19:19:00,55.2,45.2,29.27,ESE,112,0.0,0.0,69,0.00,CLR,SKC,0.04,WeatherDisplay:10.37,2013-05-28 18:19:00,
2013-05-28 19:24:00,54.9,44.9,29.27,East,90,0.0,0.0,69,0.00,CLR,SKC,0.04,WeatherDisplay:10.37,2013-05-28 18:24:00,
2013-05-28 19:29:00,54.7,45.1,29.28,ESE,112,0.0,0.0,70,0.00,CLR,SKC,0.04,WeatherDisplay:10.37,2013-05-28 18:29:00,
2013-05-28 19:34:00,54.7,45.1,29.28,East,90,0.0,0.0,70,0.00,CLR,SKC,0.04,WeatherDisplay:10.37,2013-05-28 18:34:00,
2013-05-28 19:40:00,54.5,44.9,29.28,ESE,112,0.0,0.0,70,0.00,CLR,SKC,0.04,WeatherDisplay:10.37,2013-05-28 18:40:00,
2013-05-28 19:45:00,54.3,44.7,29.28,ESE,112,0.0,0.0,70,0.00,CLR,SKC,0.04,WeatherDisplay:10.37,2013-05-28 18:45:00,
2013-05-28 19:50:00,54.3,44.7,29.28,ESE,108,0.0,0.0,70,0.00,CLR,SKC,0.04,WeatherDisplay:10.37,2013-05-28 18:50:00,
2013-05-28 19:55:00,54.3,44.7,29.28,SE,135,0.0,0.0,70,0.00,CLR,SKC,0.04,WeatherDisplay:10.37,2013-05-28 18:55:00,
2013-05-28 20:00:00,54.3,44.7,29.28,ESE,116,0.0,0.0,70,0.00,CLR,SKC,0.04,WeatherDisplay:10.37,2013-05-28 19:00:00,
2013-05-28 20:05:00,54.1,44.6,29.29,SE,135,0.0,0.0,70,0.00,CLR,SKC,0.04,WeatherDisplay:10.37,2013-05-28 19:05:00,
2013-05-28 20:10:00,54.1,44.2,29.29,SSW,202,0.0,0.0,69,0.00,CLR,SKC,0.04,WeatherDisplay:10.37,2013-05-28 19:10:00,
2013-05-28 20:15:00,53.8,44.2,29.29,SE,135,0.0,0.0,70,0.00,CLR,SKC,0.04,WeatherDisplay:10.37,2013-05-28 19:15:00,
2013-05-28 20:20:00,53.8,44.2,29.29,SE,124,0.0,0.0,70,0.00,CLR,SKC,0.04,WeatherDisplay:10.37,2013-05-28 19:20:00,
2013-05-28 20:25:00,53.4,44.2,29.30,ESE,110,0.0,0.0,71,0.00,CLR,SKC,0.04,WeatherDisplay:10.37,2013-05-28 19:25:00,
2013-05-28 20:30:00,53.2,44.1,29.30,ESE,115,0.0,0.0,71,0.00,CLR,SKC,0.04,WeatherDisplay:10.37,2013-05-28 19:30:00,
2013-05-28 20:35:00,52.9,44.1,29.30,ESE,111,0.0,0.0,72,0.00,CLR,SKC,0.04,WeatherDisplay:10.37,2013-05-28 19:35:00,
2013-05-28 20:40:00,52.5,44.1,29.30,ESE,112,0.0,0.0,73,0.00,CLR,SKC,0.04,WeatherDisplay:10.37,2013-05-28 19:40:00,
2013-05-28 20:45:00,52.3,43.9,29.30,ESE,107,0.0,0.0,73,0.00,CLR,SKC,0.04,WeatherDisplay:10.37,2013-05-28 19:45:00,
2013-05-28 20:50:00,52.0,43.9,29.30,ESE,112,0.0,0.0,74,0.00,CLR,SKC,0.04,WeatherDisplay:10.37,2013-05-28 19:50:00,
2013-05-28 20:55:00,52.0,43.9,29.30,East,101,0.0,0.0,74,0.00,CLR,SKC,0.04,WeatherDisplay:10.37,2013-05-28 19:55:00,
2013-05-28 21:00:00,51.6,44.0,29.31,ENE,68,0.0,0.0,75,0.00,CLR,SKC,0.04,WeatherDisplay:10.37,2013-05-28 20:00:00,
2013-05-28 21:05:00,51.6,44.0,29.31,East,90,0.0,0.0,75,0.00,CLR,SKC,0.04,WeatherDisplay:10.37,2013-05-28 20:05:00,
2013-05-28 21:10:00,51.6,44.0,29.31,ESE,104,0.0,0.0,75,0.00,CLR,SKC,0.04,WeatherDisplay:10.37,2013-05-28 20:10:00,
2013-05-28 21:15:00,51.4,43.8,29.31,ESE,109,0.0,0.0,75,0.00,CLR,SKC,0.04,WeatherDisplay:10.37,2013-05-28 20:15:00,
2013-05-28 21:20:00,51.4,43.8,29.31,SE,135,0.0,0.0,75,0.00,CLR,SKC,0.04,WeatherDisplay:10.37,2013-05-28 20:20:00,
2013-05-28 21:25:00,51.1,43.4,29.32,SE,130,0.0,0.0,75,0.00,CLR,SKC,0.04,WeatherDisplay:10.37,2013-05-28 20:25:00,
2013-05-28 21:30:00,50.9,43.3,29.32,SE,135,0.0,0.0,75,0.00,CLR,SKC,0.04,WeatherDisplay:10.37,2013-05-28 20:30:00,
2013-05-28 21:35:00,50.7,43.4,29.32,ESE,112,0.0,0.0,76,0.00,CLR,SKC,0.04,WeatherDisplay:10.37,2013-05-28 20:35:00,
2013-05-28 21:40:00,50.5,43.3,29.33,ESE,114,0.0,0.0,76,0.00,CLR,SKC,0.04,WeatherDisplay:10.37,2013-05-28 20:40:00,
2013-05-28 21:45:00,50.2,43.0,29.33,ESE,118,0.0,0.0,76,0.00,CLR,SKC,0.04,WeatherDisplay:10.37,2013-05-28 20:45:00,
2013-05-28 21:50:00,49.8,42.9,29.33,ESE,112,0.0,0.0,77,0.00,CLR,SKC,0.04,WeatherDisplay:10.37,2013-05-28 20:50:00,
2013-05-28 21:55:00,49.6,43.1,29.33,ESE,112,0.0,0.0,78,0.00,CLR,SKC,0.04,WeatherDisplay:10.37,2013-05-28 20:55:00,
2013-05-28 22:00:00,49.6,43.0,29.32,ESE,112,0.0,0.0,78,0.00,CLR,SKC,0.04,WeatherDisplay:10.37,2013-05-28 21:00:00,
2013-05-28 22:05:00,49.3,42.7,29.33,ENE,68,0.0,0.0,78,0.00,CLR,SKC,0.04,WeatherDisplay:10.37,2013-05-28 21:05:00,
2013-05-28 22:10:00,48.9,42.4,29.33,East,81,0.0,0.0,78,0.00,CLR,SKC,0.04,WeatherDisplay:10.37,2013-05-28 21:10:00,
2013-05-28 22:15:00,48.7,42.2,29.33,ENE,68,0.0,0.0,78,0.00,CLR,SKC,0.04,WeatherDisplay:10.37,2013-05-28 21:15:00,
2013-05-28 22:20:00,48.6,42.3,29.33,ENE,68,0.0,0.0,79,0.00,CLR,SKC,0.04,WeatherDisplay:10.37,2013-05-28 21:20:00,
2013-05-28 22:25:00,48.4,42.2,29.33,ENE,70,0.0,0.0,79,0.00,CLR,SKC,0.04,WeatherDisplay:10.37,2013-05-28 21:25:00,
2013-05-28 22:30:00,48.0,41.8,29.33,ESE,112,0.0,0.0,79,0.00,CLR,SKC,0.04,WeatherDisplay:10.37,2013-05-28 21:30:00,
2013-05-28 22:35:00,47.8,42.0,29.34,East,89,0.0,0.0,80,0.00,CLR,SKC,0.04,WeatherDisplay:10.37,2013-05-28 21:35:00,
2013-05-28 22:40:00,47.7,41.8,29.34,East,90,0.0,0.0,80,0.00,CLR,SKC,0.04,WeatherDisplay:10.37,2013-05-28 21:40:00,
2013-05-28 22:45:00,47.5,41.9,29.35,ENE,68,0.0,0.0,81,0.00,CLR,SKC,0.04,WeatherDisplay:10.37,2013-05-28 21:45:00,
2013-05-28 22:50:00,47.3,41.8,29.35,ENE,68,0.0,0.0,81,0.00,CLR,SKC,0.04,WeatherDisplay:10.37,2013-05-28 21:50:00,
2013-05-28 22:55:00,47.3,41.8,29.34,SE,135,0.0,0.0,81,0.00,CLR,SKC,0.04,WeatherDisplay:10.37,2013-05-28 21:55:00,
2013-05-28 23:00:00,47.1,41.9,29.34,East,90,0.0,0.0,82,0.00,CLR,SKC,0.04,WeatherDisplay:10.37,2013-05-28 22:00:00,
2013-05-28 23:05:00,46.8,41.6,29.35,ESE,112,0.0,0.0,82,0.00,CLR,SKC,0.04,WeatherDisplay:10.37,2013-05-28 22:05:00,
2013-05-28 23:10:00,46.8,41.6,29.35,ENE,68,0.0,0.0,82,0.00,CLR,SKC,0.04,WeatherDisplay:10.37,2013-05-28 22:10:00,
2013-05-28 23:15:00,46.6,41.4,29.35,ESE,112,0.0,0.0,82,0.00,CLR,SKC,0.04,WeatherDisplay:10.37,2013-05-28 22:15:00,
2013-05-28 23:20:00,46.6,41.4,29.35,ESE,112,0.0,0.0,82,0.00,CLR,SKC,0.04,WeatherDisplay:10.37,2013-05-28 22:20:00,
2013-05-28 23:25:00,46.2,41.3,29.35,ESE,112,0.0,0.0,83,0.00,CLR,SKC,0.04,WeatherDisplay:10.37,2013-05-28 22:25:00,
2013-05-28 23:30:00,46.0,41.2,29.35,ENE,68,0.0,0.0,83,0.00,CLR,SKC,0.04,WeatherDisplay:10.37,2013-05-28 22:30:00,
2013-05-28 23:35:00,45.9,41.0,29.36,East,90,0.0,0.0,83,0.00,CLR,SKC,0.04,WeatherDisplay:10.37,2013-05-28 22:35:00,
2013-05-28 23:40:00,45.7,40.8,29.35,East,90,0.0,0.0,83,0.00,CLR,SKC,0.04,WeatherDisplay:10.37,2013-05-28 22:40:00,
2013-05-28 23:45:00,45.1,40.3,29.36,East,90,0.0,0.0,83,0.00,CLR,SKC,0.04,WeatherDisplay:10.37,2013-05-28 22:45:00,
2013-05-28 23:50:00,44.8,39.9,29.36,East,90,0.0,0.0,83,0.00,CLR,SKC,0.04,WeatherDisplay:10.37,2013-05-28 22:50:00,
2013-05-28 23:55:00,44.4,39.6,29.36,East,90,0.0,0.0,83,0.00,CLR,SKC,0.04,WeatherDisplay:10.37,2013-05-28 22:55:00,